KMLS

Frank Wiley Field Airport

Miles City, Montana, USA
METAR KMLS 200053Z AUTO 28004KT 10SM FEW044 OVC070 02/02 A2973 RMK AO2 SLP084 T00220017
Observed Flight Rules
Jan-20 @ 00:53 UTC (29 minutes ago) Visual Flight Rules
Wind Visibility Clouds
280° at 4 knots 10 miles
  • Few at 4,400' AGL
  • Overcast at 7,000' AGL
Temperatures Readings
Current 2°C / 36°F
Dewpoint 2°C / 36°F
Humidity 100%
Altimeter 29.73" Hg
Pressure 1008.4 hPa
Elevation 801
METAR KMLS 200053Z AUTO 28004KT 10SM FEW044 OVC070 02/02 A2973 RMK AO2 SLP084 T00220017
Observed Flight Rules
Jan-20 @ 00:53 UTC
(29 minutes ago)
VFR
Wind Visibility
280° at 4 knots 10 miles
Clouds
  • Few at 4,400' AGL
  • Overcast at 7,000' AGL
Temperature Dewpoint
2°C / 36°F 2°C / 36°F
Humidity Altimeter Pressure
100% 29.73" Hg 1008.4 hPa